Time;durP1;ratioP1;P1;durP2;ratioP2;P2;SDS_P1;SDS_P2;PMS_P1;PMS_P2;Temp;Humidity;BMP_temperature;BMP_pressure;BME280_temperature;BME280_humidity;BME280_pressure;Samples;Min_cycle;Max_cycle;Signal;HPM_P1;HPM_P2
2022/07/13 00:00:14;;;;;;;;;;;;;;;26.28;38.26;101118.59;4962524;28;6959;-81
2022/07/13 00:02:40;;;;;;;;;;;;;;;26.26;38.36;101117.75;4980448;28;11150;-80
2022/07/13 00:05:06;;;;;;;;;;;;;;;26.25;38.47;101113.38;4965130;28;6796;-81
2022/07/13 00:07:33;;;;;;;;;;;;;;;26.27;37.81;101110.72;4962427;28;7210;-80
2022/07/13 00:09:59;;;;;;;;;;;;;;;26.26;38.13;101112.50;4939480;28;6995;-81
2022/07/13 00:12:25;;;;;;;;;;;;;;;26.24;37.99;101111.63;4933299;28;8526;-80
2022/07/13 00:14:51;;;;;;;;;;;;;;;26.25;38.15;101105.50;4972455;28;7110;-81
2022/07/13 00:17:17;;;;;;;;;;;;;;;26.25;38.40;101099.34;4972259;28;6784;-81
2022/07/13 00:19:42;;;;;;;;;;;;;;;26.26;38.37;101098.47;4945324;28;7318;-80
2022/07/13 00:22:08;;;;;;;;;;;;;;;26.27;38.10;101101.09;4951130;28;6945;-81
2022/07/13 00:24:34;;;;;;;;;;;;;;;26.26;38.30;101098.47;4949638;28;6779;-81
2022/07/13 00:26:59;;;;;;;;;;;;;;;26.19;39.22;101098.53;4978017;28;7799;-80
2022/07/13 00:29:25;;;;;;;;;;;;;;;26.10;39.47;101092.41;4986364;28;7324;-80
2022/07/13 00:31:51;;;;;;;;;;;;;;;26.01;39.55;101094.19;4951588;28;6856;-80
2022/07/13 00:34:16;;;;;;;;;;;;;;;25.93;39.98;101091.63;4966066;28;6773;-80
2022/07/13 00:36:42;;;;;;;;;;;;;;;25.86;40.60;101084.66;4977213;28;7122;-80
2022/07/13 00:39:08;;;;;;;;;;;;;;;25.85;40.81;101090.78;4977399;28;7199;-81
2022/07/13 00:41:33;;;;;;;;;;;;;;;25.82;40.80;101072.44;4968747;28;7244;-80
2022/07/13 00:44:10;;;;;;;;;;;;;;;25.81;40.86;101075.94;4969409;28;6959;-80
2022/07/13 00:46:36;;;;;;;;;;;;;;;25.78;40.91;101092.56;4946354;28;7104;-80
2022/07/13 00:49:04;;;;;;;;;;;;;;;25.77;41.15;101088.19;4961138;28;8525;-81
2022/07/13 00:51:30;;;;;;;;;;;;;;;25.77;41.06;101087.31;4953474;28;6808;-81
2022/07/13 00:53:57;;;;;;;;;;;;;;;25.76;41.79;101094.34;4954505;28;6814;-81
2022/07/13 00:56:26;;;;;;;;;;;;;;;25.73;42.35;101085.59;4981818;28;8542;-81
2022/07/13 00:58:52;;;;;;;;;;;;;;;25.71;43.04;101089.97;4955713;28;6800;-81
2022/07/13 01:01:18;;;;;;;;;;;;;;;25.68;43.56;101076.84;4972527;28;6768;-80
2022/07/13 01:03:43;;;;;;;;;;;;;;;25.61;44.27;101069.03;4971181;28;6784;-80
2022/07/13 01:06:11;;;;;;;;;;;;;;;25.56;44.65;101062.91;4976299;28;7013;-80
2022/07/13 01:08:36;;;;;;;;;;;;;;;25.52;45.27;101063.81;4935636;28;6968;-81
2022/07/13 01:11:02;;;;;;;;;;;;;;;25.48;45.24;101062.91;4984436;28;8368;-80
2022/07/13 01:13:29;;;;;;;;;;;;;;;25.43;45.48;101064.66;4951049;28;7198;-80
2022/07/13 01:15:54;;;;;;;;;;;;;;;25.41;45.67;101060.31;4977008;28;7002;-80
2022/07/13 01:18:21;;;;;;;;;;;;;;;25.35;45.63;101063.81;4951789;28;6991;-80
2022/07/13 01:20:48;;;;;;;;;;;;;;;25.30;44.92;101057.72;4937391;28;8376;-80
2022/07/13 01:23:17;;;;;;;;;;;;;;;25.23;44.75;101047.22;4967676;28;6938;-80
2022/07/13 01:25:43;;;;;;;;;;;;;;;25.21;44.86;101053.38;4938509;28;8486;-80
2022/07/13 01:28:13;;;;;;;;;;;;;;;25.19;44.93;101053.38;4968824;28;6808;-80
2022/07/13 01:30:39;;;;;;;;;;;;;;;25.17;45.75;101052.53;4935819;28;6983;-80
2022/07/13 01:33:05;;;;;;;;;;;;;;;25.17;45.61;101049.00;4957474;28;6837;-80
2022/07/13 01:35:30;;;;;;;;;;;;;;;25.16;45.71;101052.50;4978164;28;7070;-80
2022/07/13 01:37:57;;;;;;;;;;;;;;;25.17;45.77;101051.63;4971146;28;6962;-80
2022/07/13 01:40:23;;;;;;;;;;;;;;;25.16;46.01;101052.50;4965720;28;7222;-80
2022/07/13 01:42:52;;;;;;;;;;;;;;;25.15;45.97;101046.38;4979202;28;7805;-80
2022/07/13 01:45:22;;;;;;;;;;;;;;;25.15;45.64;101045.53;4947947;28;7944;-80
2022/07/13 01:47:51;;;;;;;;;;;;;;;25.13;45.82;101039.41;4982713;28;6867;-80
2022/07/13 01:50:20;;;;;;;;;;;;;;;25.14;46.04;101026.28;4949637;28;6812;-80
2022/07/13 01:52:47;;;;;;;;;;;;;;;25.17;45.50;101028.91;4954169;28;7259;-80
2022/07/13 01:55:13;;;;;;;;;;;;;;;25.18;45.60;101028.03;4951295;28;6898;-80
2022/07/13 01:57:39;;;;;;;;;;;;;;;25.19;45.54;101026.25;4952284;28;7120;-80
2022/07/13 02:00:10;;;;;;;;;;;;;;;25.17;45.70;101026.28;4968602;28;8490;-80
2022/07/13 02:02:36;;;;;;;;;;;;;;;25.17;45.30;101028.03;4963862;28;7337;-80
2022/07/13 02:05:03;;;;;;;;;;;;;;;25.18;45.38;101032.38;4972020;28;8421;-80
2022/07/13 02:07:28;;;;;;;;;;;;;;;25.18;45.33;101028.03;4978623;28;6776;-80
2022/07/13 02:09:54;;;;;;;;;;;;;;;25.19;44.92;101023.66;4982995;28;6801;-80
2022/07/13 02:12:21;;;;;;;;;;;;;;;25.20;45.34;101015.78;4980822;28;6961;-80
2022/07/13 02:14:47;;;;;;;;;;;;;;;25.21;45.55;101016.66;4942155;28;7050;-80
2022/07/13 02:17:13;;;;;;;;;;;;;;;25.22;45.45;101007.91;4942100;28;6972;-80
2022/07/13 02:19:39;;;;;;;;;;;;;;;25.24;45.21;101006.16;4939299;28;6844;-80
2022/07/13 02:22:06;;;;;;;;;;;;;;;25.24;45.23;101000.91;4935585;28;6987;-80
2022/07/13 02:24:33;;;;;;;;;;;;;;;25.22;45.39;100993.03;4942503;28;7039;-80
2022/07/13 02:27:00;;;;;;;;;;;;;;;25.19;45.46;100998.31;4977884;28;8507;-80
2022/07/13 02:29:26;;;;;;;;;;;;;;;25.19;45.48;100994.78;4979547;28;7006;-80
2022/07/13 02:31:51;;;;;;;;;;;;;;;25.18;45.64;100995.69;4961657;28;7210;-80
2022/07/13 02:34:17;;;;;;;;;;;;;;;25.16;45.52;100997.44;4971883;28;6844;-80
2022/07/13 02:36:43;;;;;;;;;;;;;;;25.16;45.34;100992.19;4972294;28;6811;-80
2022/07/13 02:39:09;;;;;;;;;;;;;;;25.13;44.97;100993.06;4961607;28;7011;-80
2022/07/13 02:41:35;;;;;;;;;;;;;;;25.12;45.24;100995.72;4976011;28;7007;-81
2022/07/13 02:44:00;;;;;;;;;;;;;;;25.10;45.63;100993.94;4978532;28;6939;-81
2022/07/13 02:46:26;;;;;;;;;;;;;;;25.12;45.74;100995.72;4955587;28;6788;-79
2022/07/13 02:48:52;;;;;;;;;;;;;;;25.10;45.96;100999.19;4983205;28;6964;-79
2022/07/13 02:51:17;;;;;;;;;;;;;;;25.09;45.54;100989.56;4978500;28;6768;-79
2022/07/13 02:53:43;;;;;;;;;;;;;;;25.07;45.45;100988.72;4980026;28;7344;-79
2022/07/13 02:56:08;;;;;;;;;;;;;;;25.06;45.09;100986.97;4964055;28;6848;-80
2022/07/13 02:58:34;;;;;;;;;;;;;;;25.03;45.20;100981.75;4952267;28;6776;-79
2022/07/13 03:01:00;;;;;;;;;;;;;;;25.00;45.36;100981.75;4961232;28;8377;-79
2022/07/13 03:03:25;;;;;;;;;;;;;;;24.99;45.03;100984.38;4933044;28;7050;-79
2022/07/13 03:05:51;;;;;;;;;;;;;;;24.96;45.26;100980.91;4971111;28;7225;-79
2022/07/13 03:08:17;;;;;;;;;;;;;;;24.95;45.12;100984.38;4965390;28;7668;-79
2022/07/13 03:10:42;;;;;;;;;;;;;;;24.94;44.71;100987.88;4977041;28;9219;-79
2022/07/13 03:13:08;;;;;;;;;;;;;;;24.93;45.06;100980.03;4943589;28;7997;-79
2022/07/13 03:15:34;;;;;;;;;;;;;;;24.94;45.01;100987.03;4948546;28;7137;-79
2022/07/13 03:17:59;;;;;;;;;;;;;;;24.95;44.91;100989.63;4983223;28;6958;-79
2022/07/13 03:20:25;;;;;;;;;;;;;;;24.96;44.91;100987.88;4947835;28;6951;-79
2022/07/13 03:22:51;;;;;;;;;;;;;;;24.97;45.16;100987.00;4976533;28;6954;-79
2022/07/13 03:25:17;;;;;;;;;;;;;;;24.99;44.96;100980.00;4976593;28;6801;-79
2022/07/13 03:27:42;;;;;;;;;;;;;;;25.00;45.12;100986.97;4969714;28;6792;-79
2022/07/13 03:30:09;;;;;;;;;;;;;;;25.00;45.27;100981.75;4975314;28;8709;-79
2022/07/13 03:32:34;;;;;;;;;;;;;;;25.03;45.25;100986.09;4976180;28;6820;-79
2022/07/13 03:35:00;;;;;;;;;;;;;;;25.05;45.53;100980.00;4961761;28;6949;-79
2022/07/13 03:37:26;;;;;;;;;;;;;;;25.06;45.11;100981.72;4964736;28;7535;-79
2022/07/13 03:39:51;;;;;;;;;;;;;;;25.08;44.72;100977.34;4935977;28;7112;-79
2022/07/13 03:42:17;;;;;;;;;;;;;;;25.09;45.02;100971.22;4961943;28;7387;-79
2022/07/13 03:44:43;;;;;;;;;;;;;;;25.10;45.20;100972.97;4947279;28;6965;-79
2022/07/13 03:47:08;;;;;;;;;;;;;;;25.12;44.91;100966.88;4945237;28;6962;-79
2022/07/13 03:49:34;;;;;;;;;;;;;;;25.16;44.17;100971.22;4976954;28;6771;-79
2022/07/13 03:52:00;;;;;;;;;;;;;;;25.17;43.29;100972.94;4974903;28;6922;-79
2022/07/13 03:54:25;;;;;;;;;;;;;;;25.20;42.89;100967.69;4955699;28;6946;-79
2022/07/13 03:56:51;;;;;;;;;;;;;;;25.25;42.73;100973.81;4975604;28;7197;-79
2022/07/13 03:59:17;;;;;;;;;;;;;;;25.30;42.22;100974.66;4934806;28;6960;-79
2022/07/13 04:01:42;;;;;;;;;;;;;;;25.36;41.97;100965.91;4958858;28;7268;-79
2022/07/13 04:04:08;;;;;;;;;;;;;;;25.42;41.34;100954.50;4939851;28;6960;-78
2022/07/13 04:06:34;;;;;;;;;;;;;;;25.49;41.01;100957.06;4966063;28;7173;-79
2022/07/13 04:08:59;;;;;;;;;;;;;;;25.58;41.32;100953.53;4935548;28;11791;-78
2022/07/13 04:11:27;;;;;;;;;;;;;;;25.64;40.78;100953.53;4974221;28;6979;-79
2022/07/13 04:13:53;;;;;;;;;;;;;;;25.71;40.51;100958.75;4934464;28;6996;-79
2022/07/13 04:16:19;;;;;;;;;;;;;;;25.76;40.10;100959.56;4937760;28;6951;-79
2022/07/13 04:18:45;;;;;;;;;;;;;;;25.81;39.98;100954.28;4953021;28;7816;-79
2022/07/13 04:21:13;;;;;;;;;;;;;;;25.89;39.66;100968.25;4970931;28;6903;-79
2022/07/13 04:23:40;;;;;;;;;;;;;;;25.97;39.23;100965.56;4943834;28;7076;-79
2022/07/13 04:26:07;;;;;;;;;;;;;;;26.05;39.41;100963.75;4950239;28;8052;-78
2022/07/13 04:28:32;;;;;;;;;;;;;;;26.16;39.30;100961.91;4946136;28;7330;-78
2022/07/13 04:30:59;;;;;;;;;;;;;;;26.27;38.90;100963.59;4929547;28;7819;-79
2022/07/13 04:33:24;;;;;;;;;;;;;;;26.34;38.26;100970.56;4932121;28;7129;-78
2022/07/13 04:35:50;;;;;;;;;;;;;;;26.40;38.13;100957.38;4959417;28;7245;-79
2022/07/13 04:38:16;;;;;;;;;;;;;;;26.48;38.40;100960.81;4969755;28;6925;-79
2022/07/13 04:40:41;;;;;;;;;;;;;;;26.53;38.20;100957.25;4959342;28;9124;-79
2022/07/13 04:43:07;;;;;;;;;;;;;;;26.57;37.96;100957.19;4951448;28;6936;-79
2022/07/13 04:45:33;;;;;;;;;;;;;;;26.63;37.78;100961.53;4953520;28;7481;-79
2022/07/13 04:47:59;;;;;;;;;;;;;;;26.66;37.70;100951.00;4969143;28;6776;-78
2022/07/13 04:50:25;;;;;;;;;;;;;;;26.70;37.81;100954.44;4975318;28;6955;-79
2022/07/13 04:52:51;;;;;;;;;;;;;;;26.72;37.77;100956.16;4973264;28;7117;-79
2022/07/13 04:55:17;;;;;;;;;;;;;;;26.74;37.61;100959.66;4956359;28;6827;-79
2022/07/13 04:57:43;;;;;;;;;;;;;;;26.76;38.18;100963.16;4959881;28;6796;-78
2022/07/13 05:00:10;;;;;;;;;;;;;;;26.77;37.97;100964.00;4943715;28;6966;-79
2022/07/13 05:02:36;;;;;;;;;;;;;;;26.77;38.71;100969.28;4957044;28;7262;-79
2022/07/13 05:05:03;;;;;;;;;;;;;;;26.79;38.50;100956.97;4971962;28;7133;-79
2022/07/13 05:07:29;;;;;;;;;;;;;;;26.83;38.48;100963.06;4931929;28;8510;-79
2022/07/13 05:09:55;;;;;;;;;;;;;;;26.86;39.04;100957.81;4955198;28;8398;-78
2022/07/13 05:12:21;;;;;;;;;;;;;;;26.90;38.72;100959.53;4969171;28;8576;-79
2022/07/13 05:14:47;;;;;;;;;;;;;;;26.92;38.24;100947.22;4948213;28;6780;-79
2022/07/13 05:17:13;;;;;;;;;;;;;;;26.94;38.53;100942.81;4931955;28;6973;-79
2022/07/13 05:19:39;;;;;;;;;;;;;;;26.97;38.35;100949.81;4927793;28;6969;-79
2022/07/13 05:22:05;;;;;;;;;;;;;;;27.00;38.63;100949.78;4939609;28;6944;-78
2022/07/13 05:24:31;;;;;;;;;;;;;;;27.01;38.36;100947.13;4957543;28;7302;-78
2022/07/13 05:26:56;;;;;;;;;;;;;;;27.04;38.60;100951.47;4973413;28;7135;-79
2022/07/13 05:29:22;;;;;;;;;;;;;;;27.08;38.78;100947.06;4937040;28;7824;-78
2022/07/13 05:31:48;;;;;;;;;;;;;;;27.10;38.65;100950.53;4938961;28;6780;-78
2022/07/13 05:34:14;;;;;;;;;;;;;;;27.08;38.94;100952.31;4966344;28;7001;-78
2022/07/13 05:36:40;;;;;;;;;;;;;;;27.07;39.14;100955.84;4967735;28;6776;-79
2022/07/13 05:39:06;;;;;;;;;;;;;;;27.08;39.33;100962.84;4971550;28;6779;-78
2022/07/13 05:41:34;;;;;;;;;;;;;;;27.06;39.48;100956.72;4941261;28;6772;-80
2022/07/13 05:44:00;;;;;;;;;;;;;;;26.98;39.98;100951.53;4956542;28;7058;-78
2022/07/13 05:46:27;;;;;;;;;;;;;;;26.93;40.73;100940.22;4971943;28;8053;-77
2022/07/13 05:48:53;;;;;;;;;;;;;;;26.92;41.23;100941.13;4949082;28;7254;-77
2022/07/13 05:51:18;;;;;;;;;;;;;;;27.00;41.50;100947.16;4972683;28;6776;-77
2022/07/13 05:53:46;;;;;;;;;;;;;;;27.11;41.58;100941.75;4958258;28;7480;-77
2022/07/13 05:56:11;;;;;;;;;;;;;;;27.26;41.37;100946.81;4959042;28;7266;-77
2022/07/13 05:58:37;;;;;;;;;;;;;;;27.39;41.59;100941.38;4976387;28;7754;-77
2022/07/13 06:01:03;;;;;;;;;;;;;;;27.51;41.19;100937.72;4959343;28;6780;-77
2022/07/13 06:03:28;;;;;;;;;;;;;;;27.64;40.47;100943.72;4963434;28;6835;-77
2022/07/13 06:05:54;;;;;;;;;;;;;;;27.75;40.03;100939.16;4947446;28;6776;-77
2022/07/13 06:08:20;;;;;;;;;;;;;;;27.86;39.66;100941.59;4955940;28;6847;-77
2022/07/13 06:10:45;;;;;;;;;;;;;;;27.96;39.47;100948.50;4963280;28;6788;-78
2022/07/13 06:13:11;;;;;;;;;;;;;;;28.05;39.17;100957.13;4947004;28;7182;-77
2022/07/13 06:15:36;;;;;;;;;;;;;;;28.14;38.82;100956.97;4958636;28;8889;-77
2022/07/13 06:18:02;;;;;;;;;;;;;;;28.21;38.24;100955.16;4962957;28;7267;-77
2022/07/13 06:20:28;;;;;;;;;;;;;;;28.31;37.93;100956.75;4974847;28;7499;-77
2022/07/13 06:23:12;;;;;;;;;;;;;;;28.41;37.97;100958.31;4954042;28;7221;-78
2022/07/13 06:25:41;;;;;;;;;;;;;;;28.54;37.21;100955.44;4937882;28;7236;-77
2022/07/13 06:28:08;;;;;;;;;;;;;;;28.67;36.67;100951.66;4956255;28;6983;-78
2022/07/13 06:30:35;;;;;;;;;;;;;;;28.85;37.29;100954.03;4973869;28;6922;-77
2022/07/13 06:33:02;;;;;;;;;;;;;;;29.03;36.69;100955.44;4949656;28;7823;-77
2022/07/13 06:35:29;;;;;;;;;;;;;;;29.20;36.71;100945.38;4966179;28;7372;-78
2022/07/13 06:37:55;;;;;;;;;;;;;;;29.35;36.08;100943.31;4963549;28;6956;-78
2022/07/13 06:40:21;;;;;;;;;;;;;;;29.46;36.01;100936.06;4967496;28;6951;-77
2022/07/13 06:42:47;;;;;;;;;;;;;;;29.57;35.53;100937.59;4963394;28;6948;-77
2022/07/13 06:45:13;;;;;;;;;;;;;;;29.67;35.29;100933.84;4977929;28;7134;-77
2022/07/13 06:47:40;;;;;;;;;;;;;;;29.73;35.59;100938.94;4961642;28;7192;-78
2022/07/13 06:50:07;;;;;;;;;;;;;;;29.82;34.84;100934.34;4960244;28;7274;-77
2022/07/13 06:52:33;;;;;;;;;;;;;;;29.88;34.78;100937.72;4943740;28;8436;-77
2022/07/13 06:54:59;;;;;;;;;;;;;;;29.92;34.15;100934.09;4944786;28;8598;-78
2022/07/13 06:57:24;;;;;;;;;;;;;;;29.96;34.34;100929.63;4950938;28;7178;-76
2022/07/13 06:59:50;;;;;;;;;;;;;;;29.99;34.12;100937.47;4933456;28;7042;-76
2022/07/13 07:02:16;;;;;;;;;;;;;;;30.06;34.11;100938.19;4978691;28;6792;-76
2022/07/13 07:04:41;;;;;;;;;;;;;;;30.14;34.14;100938.88;4947864;28;7205;-76
2022/07/13 07:07:09;;;;;;;;;;;;;;;30.23;33.83;100943.06;4966694;28;6955;-76
2022/07/13 07:09:35;;;;;;;;;;;;;;;30.32;33.37;100936.66;4972224;28;6811;-76
2022/07/13 07:12:01;;;;;;;;;;;;;;;30.39;33.07;100942.66;4943325;28;6953;-76
2022/07/13 07:14:27;;;;;;;;;;;;;;;30.44;32.85;100944.25;4975158;28;7231;-76
2022/07/13 07:16:53;;;;;;;;;;;;;;;30.49;33.11;100949.44;4932550;28;8073;-76
2022/07/13 07:19:19;;;;;;;;;;;;;;;30.48;32.65;100947.69;4978617;28;7211;-76
2022/07/13 07:21:44;;;;;;;;;;;;;;;30.42;31.88;100950.50;4971920;28;8025;-76
2022/07/13 07:24:10;;;;;;;;;;;;;;;30.35;32.88;100958.59;4961888;28;7003;-76
2022/07/13 07:26:35;;;;;;;;;;;;;;;30.25;33.07;100965.03;4975792;28;6772;-76
2022/07/13 07:29:01;;;;;;;;;;;;;;;30.04;33.65;100959.38;4944106;28;7205;-76
2022/07/13 07:31:27;;;;;;;;;;;;;;;29.77;34.35;100956.47;4971052;28;6772;-77
2022/07/13 07:33:52;;;;;;;;;;;;;;;29.55;34.94;100960.50;4974864;28;6959;-76
2022/07/13 07:36:18;;;;;;;;;;;;;;;29.41;35.27;100948.47;4969899;28;7400;-76
2022/07/13 07:38:44;;;;;;;;;;;;;;;29.34;35.37;100941.56;4964973;28;6963;-76
2022/07/13 07:41:11;;;;;;;;;;;;;;;29.34;35.77;100938.94;4975505;28;6868;-76
2022/07/13 07:43:40;;;;;;;;;;;;;;;29.39;35.47;100937.94;4951616;28;7304;-76
2022/07/13 07:46:06;;;;;;;;;;;;;;;29.51;35.80;100946.53;4931440;28;8536;-76
2022/07/13 07:48:32;;;;;;;;;;;;;;;29.64;35.89;100944.44;4977418;28;6856;-76
2022/07/13 07:50:58;;;;;;;;;;;;;;;29.80;35.36;100932.63;4962782;28;6978;-76
2022/07/13 07:53:24;;;;;;;;;;;;;;;30.02;34.90;100924.16;4963269;28;7257;-76
2022/07/13 07:55:49;;;;;;;;;;;;;;;30.32;34.63;100926.94;4946445;28;9095;-76
2022/07/13 07:58:15;;;;;;;;;;;;;;;30.66;34.65;100919.06;4958893;28;6906;-76
2022/07/13 08:00:42;;;;;;;;;;;;;;;30.93;34.06;100927.13;4942597;28;6784;-76
2022/07/13 08:03:09;;;;;;;;;;;;;;;31.08;33.47;100910.75;4965700;28;6880;-76
2022/07/13 08:05:35;;;;;;;;;;;;;;;31.23;33.00;100921.81;4962290;28;8883;-77
2022/07/13 08:08:01;;;;;;;;;;;;;;;31.32;32.43;100921.56;4964505;28;8523;-77
2022/07/13 08:10:28;;;;;;;;;;;;;;;31.41;32.11;100929.22;4975540;28;6827;-77
2022/07/13 08:12:54;;;;;;;;;;;;;;;31.63;32.11;100927.66;4967459;28;6996;-77
2022/07/13 08:15:21;;;;;;;;;;;;;;;32.04;31.95;100921.94;4955483;28;7263;-77
2022/07/13 08:17:46;;;;;;;;;;;;;;;32.52;31.46;100912.38;4953068;28;7968;-77
2022/07/13 08:20:12;;;;;;;;;;;;;;;32.85;31.09;100916.50;4959723;28;6934;-77
2022/07/13 08:22:38;;;;;;;;;;;;;;;33.07;30.86;100921.84;4946229;28;8773;-77
2022/07/13 08:25:05;;;;;;;;;;;;;;;33.20;29.77;100927.56;4947983;28;6872;-77
2022/07/13 08:27:32;;;;;;;;;;;;;;;33.20;29.42;100936.41;4969234;28;7014;-77
2022/07/13 08:29:59;;;;;;;;;;;;;;;33.32;29.58;100923.56;4956125;28;6990;-76
2022/07/13 08:32:25;;;;;;;;;;;;;;;33.79;30.03;100925.25;4941500;28;8578;-76
2022/07/13 08:40:20;;;;;;;;;;;;;;;34.68;28.36;100921.50;4969428;28;6804;-77
2022/07/13 08:42:47;;;;;;;;;;;;;;;34.81;28.13;100916.50;4955948;28;7299;-76
2022/07/13 08:45:14;;;;;;;;;;;;;;;35.08;27.68;100908.19;4971068;28;8389;-76
2022/07/13 08:47:42;;;;;;;;;;;;;;;35.48;27.23;100916.91;4945329;28;6784;-76
2022/07/13 08:50:09;;;;;;;;;;;;;;;35.77;27.11;100913.75;4966765;28;6980;-77
2022/07/13 08:52:39;;;;;;;;;;;;;;;35.97;27.05;100913.59;4961852;28;6963;-77
2022/07/13 08:55:08;;;;;;;;;;;;;;;36.33;26.20;100917.13;4974128;28;6784;-77
2022/07/13 08:57:38;;;;;;;;;;;;;;;36.90;26.34;100913.25;4964242;28;6986;-77
2022/07/13 09:00:10;;;;;;;;;;;;;;;37.64;25.54;100912.69;4945632;28;7101;-78
2022/07/13 09:02:35;;;;;;;;;;;;;;;38.12;24.72;100922.41;4962439;28;7034;-78
2022/07/13 09:05:05;;;;;;;;;;;;;;;38.42;24.12;100925.03;4930258;28;6924;-77
2022/07/13 09:07:33;;;;;;;;;;;;;;;38.49;23.90;100917.50;4948559;28;6797;-77
2022/07/13 09:10:02;;;;;;;;;;;;;;;38.46;23.41;100925.69;4972165;28;7318;-76
2022/07/13 09:12:28;;;;;;;;;;;;;;;38.41;23.60;100917.97;4955109;28;7182;-77
2022/07/13 09:15:02;;;;;;;;;;;;;;;38.30;23.20;100923.97;4947993;28;7160;-76
2022/07/13 09:17:42;;;;;;;;;;;;;;;38.20;23.65;100925.47;4941215;28;6808;-77
2022/07/13 09:20:14;;;;;;;;;;;;;;;38.09;23.70;100928.78;4971818;28;7212;-77
2022/07/13 09:22:59;;;;;;;;;;;;;;;37.89;23.55;100924.63;4955103;28;7035;-77
2022/07/13 09:25:34;;;;;;;;;;;;;;;37.52;23.67;100925.81;4929731;28;7044;-77
2022/07/13 09:28:10;;;;;;;;;;;;;;;37.09;24.07;100922.94;4956838;28;7541;-77
2022/07/13 09:30:45;;;;;;;;;;;;;;;36.73;24.86;100932.84;4945406;28;7014;-78
2022/07/13 09:33:11;;;;;;;;;;;;;;;36.57;25.06;100943.47;4955300;28;6825;-77
2022/07/13 09:35:49;;;;;;;;;;;;;;;36.33;24.82;100933.16;4942880;28;6796;-77
2022/07/13 09:38:36;;;;;;;;;;;;;;;36.07;24.74;100935.34;4933528;28;6858;-77
2022/07/13 09:41:24;;;;;;;;;;;;;;;35.85;24.72;100930.22;4937007;28;8438;-75
2022/07/13 09:47:04;;;;;;;;;;;;;;;35.79;25.39;100928.72;4963045;28;8278;-77
2022/07/13 09:49:37;;;;;;;;;;;;;;;35.80;25.14;100933.13;4974866;28;6968;-77
2022/07/13 09:52:06;;;;;;;;;;;;;;;35.78;25.34;100935.00;4963347;28;7003;-81
2022/07/13 09:54:36;;;;;;;;;;;;;;;35.69;25.50;100941.66;4952968;28;6864;-82
2022/07/13 09:57:08;;;;;;;;;;;;;;;35.65;25.78;100941.91;4951052;28;6784;-82
2022/07/13 09:59:40;;;;;;;;;;;;;;;35.76;25.66;100941.34;4977764;28;6860;-82
2022/07/13 10:02:07;;;;;;;;;;;;;;;36.21;25.93;100937.31;4934723;28;8307;-82
2022/07/13 10:04:36;;;;;;;;;;;;;;;36.76;25.09;100934.47;4976998;28;7171;-82
2022/07/13 10:07:08;;;;;;;;;;;;;;;37.29;24.82;100923.59;4972441;28;7070;-83
2022/07/13 10:09:38;;;;;;;;;;;;;;;38.08;25.12;100923.56;4972243;28;7294;-82
2022/07/13 10:12:09;;;;;;;;;;;;;;;38.78;24.25;100917.47;4975724;28;7088;-82
2022/07/13 10:14:36;;;;;;;;;;;;;;;39.20;23.49;100924.69;4967331;28;7259;-82
2022/07/13 10:17:11;;;;;;;;;;;;;;;39.24;23.07;100920.84;4953983;28;7028;-82
2022/07/13 10:20:10;;;;;;;;;;;;;;;38.92;22.94;100918.41;4953006;28;7679;-82
2022/07/13 10:22:42;;;;;;;;;;;;;;;38.41;23.10;100930.47;4965861;28;7126;-82
2022/07/13 10:25:08;;;;;;;;;;;;;;;38.37;23.98;100927.13;4964790;28;6956;-83
2022/07/13 10:27:37;;;;;;;;;;;;;;;38.82;23.46;100921.66;4957252;28;7863;-82
2022/07/13 10:30:08;;;;;;;;;;;;;;;38.89;23.18;100925.69;4952975;28;7208;-82
2022/07/13 10:32:45;;;;;;;;;;;;;;;38.68;23.07;100937.75;4937857;28;7055;-83
2022/07/13 10:35:16;;;;;;;;;;;;;;;38.39;23.51;100935.06;4955237;28;7190;-82
2022/07/13 10:38:00;;;;;;;;;;;;;;;38.02;23.61;100932.81;4937372;28;7009;-82
2022/07/13 10:40:30;;;;;;;;;;;;;;;37.69;23.64;100925.78;4969490;28;6882;-80
2022/07/13 10:43:04;;;;;;;;;;;;;;;37.38;23.70;100929.28;4954877;28;7451;-79
2022/07/13 10:45:32;;;;;;;;;;;;;;;37.12;24.11;100943.25;4981462;28;7157;-79
2022/07/13 10:48:21;;;;;;;;;;;;;;;36.98;24.31;100942.19;4961222;28;9426;-79
2022/07/13 10:50:54;;;;;;;;;;;;;;;37.01;24.96;100933.16;4941010;28;6989;-80
2022/07/13 10:53:40;;;;;;;;;;;;;;;36.93;24.55;100939.75;4972167;28;8667;-80
2022/07/13 10:56:20;;;;;;;;;;;;;;;36.85;24.73;100935.81;4956084;28;7189;-80
2022/07/13 10:58:49;;;;;;;;;;;;;;;36.75;25.03;100938.09;4951245;28;7231;-79
2022/07/13 11:01:39;;;;;;;;;;;;;;;36.85;25.46;100942.00;4946703;28;7153;-80
2022/07/13 11:04:06;;;;;;;;;;;;;;;37.32;24.94;100944.78;4954865;28;7344;-80
2022/07/13 11:06:33;;;;;;;;;;;;;;;37.74;24.84;100934.44;4969412;28;8553;-80
2022/07/13 11:09:20;;;;;;;;;;;;;;;37.94;24.21;100930.53;4948414;28;7388;-79
2022/07/13 11:11:54;;;;;;;;;;;;;;;38.11;24.32;100934.06;4937622;28;7202;-80
2022/07/13 11:14:35;;;;;;;;;;;;;;;38.32;23.96;100945.28;4948770;28;6835;-80
2022/07/13 11:17:20;;;;;;;;;;;;;;;38.27;23.40;100936.66;4946467;28;6976;-79
2022/07/13 11:19:57;;;;;;;;;;;;;;;38.05;24.09;100925.47;4945118;28;6872;-79
2022/07/13 11:22:25;;;;;;;;;;;;;;;37.97;24.03;100932.19;4948966;28;6971;-81
2022/07/13 11:25:45;;;;;;;;;;;;;;;37.97;23.66;100932.19;4949913;28;7231;-79
2022/07/13 11:28:31;;;;;;;;;;;;;;;38.14;23.98;100928.50;4949712;28;7516;-79
2022/07/13 11:30:57;;;;;;;;;;;;;;;38.31;24.17;100928.34;4929707;28;7912;-80
2022/07/13 11:33:23;;;;;;;;;;;;;;;38.65;23.66;100924.59;4951868;28;6977;-79
2022/07/13 11:35:50;;;;;;;;;;;;;;;39.01;23.30;100910.69;4945141;28;8694;-79
2022/07/13 11:38:19;;;;;;;;;;;;;;;39.51;22.92;100917.34;4961606;28;6820;-80
2022/07/13 11:40:45;;;;;;;;;;;;;;;40.06;22.42;100909.19;4966068;28;7024;-81
2022/07/13 11:43:12;;;;;;;;;;;;;;;40.21;21.90;100909.94;4966723;28;6824;-80
2022/07/13 11:45:41;;;;;;;;;;;;;;;40.27;21.95;100904.16;4977230;28;9247;-80
2022/07/13 11:48:12;;;;;;;;;;;;;;;40.33;21.58;100894.84;4941951;28;6987;-81
2022/07/13 11:50:50;;;;;;;;;;;;;;;40.35;21.71;100901.81;4960899;28;7030;-80
2022/07/13 11:53:28;;;;;;;;;;;;;;;40.35;21.31;100898.25;4951913;28;7004;-80
2022/07/13 11:56:06;;;;;;;;;;;;;;;40.34;22.01;100892.06;4948446;28;7101;-80
2022/07/13 11:58:39;;;;;;;;;;;;;;;40.45;21.80;100893.13;4951211;28;7030;-80
2022/07/13 12:01:13;;;;;;;;;;;;;;;40.68;21.53;100886.09;4948495;28;7213;-81
2022/07/13 12:03:40;;;;;;;;;;;;;;;40.92;21.73;100893.34;4933252;28;6970;-80
2022/07/13 12:06:09;;;;;;;;;;;;;;;41.05;21.66;100883.41;4950524;28;7170;-80
2022/07/13 12:08:38;;;;;;;;;;;;;;;41.08;21.36;100888.56;4964447;28;7236;-80
2022/07/13 12:11:07;;;;;;;;;;;;;;;40.98;21.51;100883.97;4978244;28;7188;-80
2022/07/13 12:13:39;;;;;;;;;;;;;;;40.84;21.55;100888.53;4946140;28;7346;-73
2022/07/13 12:16:09;;;;;;;;;;;;;;;40.82;21.44;100875.22;4947762;28;7012;-74
2022/07/13 12:19:04;;;;;;;;;;;;;;;41.06;21.39;100879.75;4964257;28;7233;-75
2022/07/13 12:21:31;;;;;;;;;;;;;;;41.49;21.55;100877.50;4941870;28;6844;-74
2022/07/13 12:23:58;;;;;;;;;;;;;;;41.91;20.99;100869.81;4975829;28;7157;-75
2022/07/13 12:26:25;;;;;;;;;;;;;;;42.17;20.53;100868.78;4950909;28;6847;-75
2022/07/13 12:28:51;;;;;;;;;;;;;;;42.26;20.37;100869.88;4970559;28;6981;-76
2022/07/13 12:31:22;;;;;;;;;;;;;;;42.34;20.17;100867.41;4954844;28;6784;-75
2022/07/13 12:33:51;;;;;;;;;;;;;;;42.52;20.18;100861.56;4932103;28;6983;-75
2022/07/13 12:36:20;;;;;;;;;;;;;;;42.67;19.98;100862.16;4930525;28;6983;-75
2022/07/13 12:38:56;;;;;;;;;;;;;;;42.75;19.66;100865.06;4975584;28;7206;-75
2022/07/13 12:41:34;;;;;;;;;;;;;;;42.79;19.66;100863.00;4972802;28;7289;-75
2022/07/13 12:44:06;;;;;;;;;;;;;;;42.62;19.45;100859.84;4961002;28;10096;-75
2022/07/13 12:46:56;;;;;;;;;;;;;;;42.35;19.60;100866.44;4961167;28;6953;-75
2022/07/13 12:49:38;;;;;;;;;;;;;;;42.32;19.77;100862.16;4946873;28;7398;-76
2022/07/13 12:52:10;;;;;;;;;;;;;;;42.41;20.01;100868.66;4958562;28;7052;-76
2022/07/13 12:54:53;;;;;;;;;;;;;;;42.48;20.04;100872.53;4955913;28;7070;-76
2022/07/13 12:57:25;;;;;;;;;;;;;;;42.46;19.78;100852.13;4932300;28;7001;-75
2022/07/13 13:00:13;;;;;;;;;;;;;;;42.29;19.69;100866.91;4942255;28;6885;-75